createdAt,value
2023-02-12T00:00:10.776Z,45.76
2023-02-12T00:01:10.758Z,46.08
2023-02-12T00:02:10.807Z,46.89
2023-02-12T00:03:10.788Z,45.92
2023-02-12T00:04:10.770Z,45.44
2023-02-12T00:05:10.737Z,45.44
2023-02-12T00:06:10.763Z,45.60
2023-02-12T00:07:10.755Z,46.89
2023-02-12T00:08:10.724Z,45.92
2023-02-12T00:09:10.761Z,45.28
2023-02-12T00:10:10.722Z,47.37
2023-02-12T00:11:10.713Z,48.02
2023-02-12T00:12:10.692Z,45.60
2023-02-12T00:13:10.773Z,45.60
2023-02-12T00:14:10.738Z,45.76
2023-02-12T00:15:10.667Z,45.92
2023-02-12T00:16:10.729Z,45.92
2023-02-12T00:17:10.707Z,45.12
2023-02-12T00:18:10.675Z,45.44
2023-02-12T00:19:10.695Z,45.12
2023-02-12T00:20:10.657Z,45.28
2023-02-12T00:21:10.641Z,45.12
2023-02-12T00:22:10.677Z,45.60
2023-02-12T00:23:10.671Z,45.60
2023-02-12T00:24:10.681Z,45.60
2023-02-12T00:25:10.667Z,48.02
2023-02-12T00:26:10.656Z,45.76
2023-02-12T00:27:10.641Z,45.76
2023-02-12T00:28:10.664Z,46.89
2023-02-12T00:29:10.595Z,45.12
2023-02-12T00:30:10.618Z,45.28
2023-02-12T00:31:10.845Z,47.05
2023-02-12T00:32:10.664Z,46.08
2023-02-12T00:33:10.582Z,46.08
2023-02-12T00:34:10.585Z,45.44
2023-02-12T00:35:10.558Z,44.96
2023-02-12T00:36:10.553Z,45.76
2023-02-12T00:37:10.597Z,45.28
2023-02-12T00:38:10.580Z,45.44
2023-02-12T00:39:10.602Z,45.12
2023-02-12T00:40:10.545Z,45.92
2023-02-12T00:41:10.549Z,45.76
2023-02-12T00:42:10.551Z,45.28
2023-02-12T00:43:10.632Z,45.76
2023-02-12T00:44:10.528Z,45.92
2023-02-12T00:45:10.531Z,45.44
2023-02-12T00:46:10.617Z,45.60
2023-02-12T00:47:10.548Z,45.44
2023-02-12T00:48:10.498Z,45.28
2023-02-12T00:49:11.518Z,45.60
2023-02-12T00:50:10.484Z,45.60
2023-02-12T00:51:10.554Z,45.12
2023-02-12T00:52:10.511Z,45.12
2023-02-12T00:53:11.476Z,45.92
2023-02-12T00:54:10.481Z,45.92
2023-02-12T00:55:10.502Z,44.47
2023-02-12T00:56:10.445Z,45.12
2023-02-12T00:57:10.449Z,45.28
2023-02-12T00:58:10.436Z,45.12
2023-02-12T00:59:10.467Z,46.08
2023-02-12T01:00:10.418Z,45.76
2023-02-12T01:01:10.447Z,45.60
2023-02-12T01:02:10.416Z,45.60
2023-02-12T01:03:10.437Z,45.12
2023-02-12T01:04:10.390Z,45.28
2023-02-12T01:05:10.464Z,45.28
2023-02-12T01:06:10.422Z,45.12
2023-02-12T01:07:10.410Z,45.44
2023-02-12T01:08:10.398Z,45.28
2023-02-12T01:09:10.381Z,45.28
2023-02-12T01:10:10.354Z,46.08
2023-02-12T01:11:10.413Z,45.44
2023-02-12T01:12:10.375Z,45.60
2023-02-12T01:13:10.365Z,46.08
2023-02-12T01:14:10.370Z,45.28
2023-02-12T01:15:10.331Z,45.92
2023-02-12T01:16:10.477Z,45.44
2023-02-12T01:17:10.342Z,45.44
2023-02-12T01:18:10.320Z,45.44
2023-02-12T01:19:10.345Z,46.25
2023-02-12T01:20:10.329Z,46.08
2023-02-12T01:21:10.318Z,45.44
2023-02-12T01:22:10.315Z,45.92
2023-02-12T01:23:10.332Z,45.44
2023-02-12T01:24:10.342Z,47.21
2023-02-12T01:25:10.329Z,46.25
2023-02-12T01:26:10.280Z,45.60
2023-02-12T01:27:10.279Z,45.76
2023-02-12T01:28:10.312Z,45.60
2023-02-12T01:29:10.290Z,45.60
2023-02-12T01:30:10.298Z,45.12
2023-02-12T01:31:10.416Z,46.25
2023-02-12T01:32:10.326Z,45.60
2023-02-12T01:33:10.245Z,45.28
2023-02-12T01:34:10.369Z,45.60
2023-02-12T01:35:10.223Z,45.44
2023-02-12T01:36:10.239Z,45.28
2023-02-12T01:37:10.218Z,45.12
2023-02-12T01:38:10.211Z,45.76
2023-02-12T01:39:10.218Z,45.60
2023-02-12T01:40:10.248Z,45.44
2023-02-12T01:41:10.217Z,45.28
2023-02-12T01:42:10.216Z,45.12
2023-02-12T01:43:10.160Z,46.25
2023-02-12T01:44:10.205Z,45.28
2023-02-12T01:45:10.219Z,45.28
2023-02-12T01:46:10.193Z,44.96
2023-02-12T01:47:10.174Z,45.12
2023-02-12T01:48:10.160Z,45.12
2023-02-12T01:49:10.205Z,44.96
2023-02-12T01:50:10.176Z,45.28
2023-02-12T01:51:10.192Z,45.60
2023-02-12T01:52:10.180Z,45.12
2023-02-12T01:53:10.155Z,45.12
2023-02-12T01:54:10.141Z,44.79
2023-02-12T01:55:10.179Z,45.44
2023-02-12T01:56:10.111Z,45.12
2023-02-12T01:57:10.115Z,45.28
2023-02-12T01:58:10.154Z,46.25
2023-02-12T01:59:10.120Z,45.44
2023-02-12T02:00:10.135Z,45.12
2023-02-12T02:01:10.100Z,45.76
2023-02-12T02:02:10.125Z,45.44
2023-02-12T02:03:10.203Z,45.12
2023-02-12T02:04:10.123Z,45.76
2023-02-12T02:05:10.081Z,45.28
2023-02-12T02:06:10.083Z,45.12
2023-02-12T02:07:10.069Z,45.28
2023-02-12T02:08:10.098Z,45.12
2023-02-12T02:09:10.040Z,45.12
2023-02-12T02:10:10.086Z,45.12
2023-02-12T02:11:10.050Z,45.60
2023-02-12T02:12:10.064Z,45.28
2023-02-12T02:13:10.025Z,45.12
2023-02-12T02:14:10.062Z,45.28
2023-02-12T02:15:10.026Z,45.28
2023-02-12T02:16:10.056Z,45.28
2023-02-12T02:17:10.041Z,45.44
2023-02-12T02:18:10.028Z,45.44
2023-02-12T02:19:09.981Z,45.28
2023-02-12T02:20:09.997Z,45.12
2023-02-12T02:21:09.980Z,45.92
2023-02-12T02:22:09.970Z,44.79
2023-02-12T02:23:10.037Z,45.44
2023-02-12T02:24:09.981Z,45.28
2023-02-12T02:25:09.956Z,45.12
2023-02-12T02:26:09.957Z,45.28
2023-02-12T02:27:09.973Z,45.28
2023-02-12T02:28:09.988Z,45.12
2023-02-12T02:29:09.938Z,45.12
2023-02-12T02:30:09.918Z,45.76
2023-02-12T02:31:10.073Z,45.76
2023-02-12T02:32:09.951Z,45.28
2023-02-12T02:33:09.915Z,45.44
2023-02-12T02:34:09.931Z,44.96
2023-02-12T02:35:09.932Z,45.28
2023-02-12T02:36:09.894Z,45.12
2023-02-12T02:37:09.913Z,45.44
2023-02-12T02:38:09.915Z,45.44
2023-02-12T02:39:09.860Z,45.92
2023-02-12T02:40:09.889Z,46.08
2023-02-12T02:41:09.880Z,45.28
2023-02-12T02:42:09.866Z,45.12
2023-02-12T02:43:09.929Z,45.60
2023-02-12T02:44:09.825Z,46.41
2023-02-12T02:45:09.837Z,45.28
2023-02-12T02:46:09.855Z,45.44
2023-02-12T02:47:09.839Z,45.28
2023-02-12T02:48:09.858Z,45.60
2023-02-12T02:49:09.812Z,45.28
2023-02-12T02:50:09.815Z,45.12
2023-02-12T02:51:09.834Z,45.28
2023-02-12T02:52:09.788Z,45.12
2023-02-12T02:53:09.840Z,45.60
2023-02-12T02:54:09.769Z,46.41
2023-02-12T02:55:09.798Z,46.73
2023-02-12T02:56:09.802Z,45.12
2023-02-12T02:57:09.780Z,45.12
2023-02-12T02:58:09.829Z,44.96
2023-02-12T02:59:09.792Z,45.28
2023-02-12T03:00:09.742Z,45.44
2023-02-12T03:01:10.030Z,45.28
2023-02-12T03:02:09.761Z,44.79
2023-02-12T03:03:09.804Z,45.76
2023-02-12T03:04:09.796Z,45.28
2023-02-12T03:05:09.705Z,44.96
2023-02-12T03:06:09.744Z,45.28
2023-02-12T03:07:09.734Z,45.28
2023-02-12T03:08:09.727Z,45.44
2023-02-12T03:09:09.728Z,44.96
2023-02-12T03:10:09.687Z,45.28
2023-02-12T03:11:09.689Z,44.79
2023-02-12T03:12:09.679Z,45.60
2023-02-12T03:13:09.676Z,45.12
2023-02-12T03:14:09.695Z,44.96
2023-02-12T03:15:09.728Z,45.12
2023-02-12T03:16:09.836Z,45.28
2023-02-12T03:17:09.661Z,45.28
2023-02-12T03:18:09.668Z,45.60
2023-02-12T03:19:09.719Z,45.28
2023-02-12T03:20:09.660Z,45.44
2023-02-12T03:21:09.627Z,45.28
2023-02-12T03:22:09.617Z,45.44
2023-02-12T03:23:09.641Z,45.12
2023-02-12T03:24:09.668Z,44.79
2023-02-12T03:25:09.631Z,45.12
2023-02-12T03:26:09.639Z,45.12
2023-02-12T03:27:09.613Z,45.12
2023-02-12T03:28:09.667Z,45.28
2023-02-12T03:29:09.640Z,45.28
2023-02-12T03:30:09.633Z,44.96
2023-02-12T03:31:09.760Z,44.96
2023-02-12T03:32:09.628Z,44.96
2023-02-12T03:33:09.600Z,44.63
2023-02-12T03:34:09.603Z,45.12
2023-02-12T03:35:09.558Z,44.96
2023-02-12T03:36:09.610Z,45.28
2023-02-12T03:37:09.558Z,45.76
2023-02-12T03:38:09.583Z,44.96
2023-02-12T03:39:09.545Z,44.63
2023-02-12T03:40:09.559Z,45.28
2023-02-12T03:41:09.538Z,45.44
2023-02-12T03:42:09.595Z,45.44
2023-02-12T03:43:09.520Z,45.28
2023-02-12T03:44:09.532Z,46.08
2023-02-12T03:45:09.510Z,45.28
2023-02-12T03:46:09.543Z,45.12
2023-02-12T03:47:09.537Z,45.28
2023-02-12T03:48:09.554Z,45.12
2023-02-12T03:49:09.496Z,45.28
2023-02-12T03:50:09.486Z,45.28
2023-02-12T03:51:09.532Z,45.12
2023-02-12T03:52:09.491Z,45.28
2023-02-12T03:53:09.502Z,45.28
2023-02-12T03:54:09.473Z,45.12
2023-02-12T03:55:09.438Z,45.12
2023-02-12T03:56:09.451Z,44.79
2023-02-12T03:57:09.437Z,45.28
2023-02-12T03:58:09.690Z,45.28
2023-02-12T03:59:09.428Z,45.28
2023-02-12T04:00:09.461Z,45.28
2023-02-12T04:01:09.512Z,45.28
2023-02-12T04:02:09.506Z,45.28
2023-02-12T04:03:09.411Z,45.76
2023-02-12T04:04:09.611Z,45.12
2023-02-12T04:05:09.436Z,44.96
2023-02-12T04:06:09.415Z,45.28
2023-02-12T04:07:09.374Z,45.44
2023-02-12T04:08:09.466Z,45.28
2023-02-12T04:09:09.404Z,45.44
2023-02-12T04:10:09.356Z,45.28
2023-02-12T04:11:09.360Z,44.96
2023-02-12T04:12:09.392Z,45.76
2023-02-12T04:13:09.334Z,45.76
2023-02-12T04:14:09.317Z,45.12
2023-02-12T04:15:09.368Z,45.12
2023-02-12T04:16:09.400Z,45.76
2023-02-12T04:17:09.340Z,45.28
2023-02-12T04:18:09.326Z,45.28
2023-02-12T04:19:09.288Z,45.92
2023-02-12T04:20:09.315Z,45.44
2023-02-12T04:21:09.302Z,44.96
2023-02-12T04:22:09.288Z,45.12
2023-02-12T04:23:09.271Z,44.96
2023-02-12T04:24:09.338Z,45.60
2023-02-12T04:25:09.295Z,45.12
2023-02-12T04:26:09.356Z,45.12
2023-02-12T04:27:09.282Z,45.76
2023-02-12T04:28:09.330Z,45.28
2023-02-12T04:29:09.266Z,45.28
2023-02-12T04:30:09.293Z,45.28
2023-02-12T04:31:09.485Z,45.60
2023-02-12T04:32:09.250Z,45.12
2023-02-12T04:33:09.232Z,45.28
2023-02-12T04:34:09.235Z,46.57
2023-02-12T04:35:09.304Z,45.28
2023-02-12T04:36:09.291Z,45.76
2023-02-12T04:37:09.223Z,45.76
2023-02-12T04:38:09.203Z,45.60
2023-02-12T04:39:09.197Z,45.12
2023-02-12T04:40:09.158Z,45.76
2023-02-12T04:41:09.274Z,47.37
2023-02-12T04:42:09.176Z,45.76
2023-02-12T04:43:09.240Z,45.28
2023-02-12T04:44:09.189Z,46.25
2023-02-12T04:45:09.161Z,45.44
2023-02-12T04:46:09.192Z,45.28
2023-02-12T04:47:10.187Z,46.08
2023-02-12T04:48:09.166Z,46.73
2023-02-12T04:49:09.165Z,45.60
2023-02-12T04:50:09.131Z,45.44
2023-02-12T04:51:09.116Z,45.60
2023-02-12T04:52:09.119Z,46.08
2023-02-12T04:53:09.165Z,45.28
2023-02-12T04:54:09.110Z,44.79
2023-02-12T04:55:09.094Z,45.12
2023-02-12T04:56:09.087Z,45.44
2023-02-12T04:57:09.151Z,45.28
2023-02-12T04:58:09.092Z,45.12
2023-02-12T04:59:09.076Z,46.08
2023-02-12T05:00:09.066Z,44.96
2023-02-12T05:01:09.184Z,45.12
2023-02-12T05:02:09.084Z,45.28
2023-02-12T05:03:09.072Z,45.44
2023-02-12T05:04:09.043Z,45.28
2023-02-12T05:05:09.164Z,44.96
2023-02-12T05:06:09.034Z,45.28
2023-02-12T05:07:09.031Z,45.28
2023-02-12T05:08:09.029Z,45.60
2023-02-12T05:09:09.065Z,45.12
2023-02-12T05:10:08.988Z,45.28
2023-02-12T05:11:09.012Z,45.44
2023-02-12T05:12:08.991Z,45.28
2023-02-12T05:13:08.980Z,46.08
2023-02-12T05:14:09.008Z,45.44
2023-02-12T05:15:08.985Z,45.60
2023-02-12T05:16:09.072Z,45.76
2023-02-12T05:17:08.972Z,44.96
2023-02-12T05:18:08.954Z,45.60
2023-02-12T05:19:08.967Z,45.44
2023-02-12T05:20:08.978Z,45.44
2023-02-12T05:21:08.966Z,45.44
2023-02-12T05:22:08.950Z,45.28
2023-02-12T05:23:08.936Z,45.76
2023-02-12T05:24:08.968Z,45.44
2023-02-12T05:25:08.962Z,45.28
2023-02-12T05:26:08.961Z,45.28
2023-02-12T05:27:08.945Z,45.60
2023-02-12T05:28:09.000Z,45.60
2023-02-12T05:29:08.901Z,45.28
2023-02-12T05:30:08.915Z,45.12
2023-02-12T05:31:08.999Z,45.44
2023-02-12T05:32:08.994Z,45.44
2023-02-12T05:33:08.931Z,45.60
2023-02-12T05:34:08.870Z,44.96
2023-02-12T05:35:08.891Z,45.12
2023-02-12T05:36:09.879Z,46.08
2023-02-12T05:37:08.880Z,45.76
2023-02-12T05:38:08.848Z,45.60
2023-02-12T05:39:08.833Z,45.76
2023-02-12T05:40:08.907Z,45.76
2023-02-12T05:41:08.825Z,45.28
2023-02-12T05:42:08.916Z,45.28
2023-02-12T05:43:08.811Z,45.44
2023-02-12T05:44:08.797Z,45.76
2023-02-12T05:45:08.803Z,45.92
2023-02-12T05:46:08.839Z,45.92
2023-02-12T05:47:08.817Z,45.44
2023-02-12T05:48:08.819Z,46.08
2023-02-12T05:49:08.795Z,45.44
2023-02-12T05:50:08.785Z,45.60
2023-02-12T05:51:08.795Z,45.44
2023-02-12T05:52:08.809Z,45.44
2023-02-12T05:53:08.771Z,45.44
2023-02-12T05:54:08.850Z,45.60
2023-02-12T05:55:08.753Z,45.60
2023-02-12T05:56:08.769Z,45.44
2023-02-12T05:57:08.771Z,45.44
2023-02-12T05:58:08.792Z,45.28
2023-02-12T05:59:08.758Z,45.12
2023-02-12T06:00:08.711Z,45.28
2023-02-12T06:01:08.711Z,45.12
2023-02-12T06:02:09.850Z,45.12
2023-02-12T06:03:08.868Z,45.44
2023-02-12T06:04:08.871Z,45.60
2023-02-12T06:05:08.806Z,45.12
2023-02-12T06:06:08.701Z,45.12
2023-02-12T06:07:08.666Z,45.28
2023-02-12T06:08:08.692Z,45.12
2023-02-12T06:09:08.726Z,45.28
2023-02-12T06:10:08.661Z,45.12
2023-02-12T06:11:08.685Z,48.34
2023-02-12T06:12:08.676Z,45.28
2023-02-12T06:13:08.651Z,45.44
2023-02-12T06:14:08.669Z,45.60
2023-02-12T06:15:08.663Z,45.92
2023-02-12T06:16:08.668Z,45.60
2023-02-12T06:17:08.629Z,45.92
2023-02-12T06:18:08.630Z,45.44
2023-02-12T06:19:08.620Z,45.76
2023-02-12T06:20:08.813Z,44.96
2023-02-12T06:21:08.622Z,45.44
2023-02-12T06:22:08.580Z,45.60
2023-02-12T06:23:08.663Z,45.60
2023-02-12T06:24:08.606Z,45.60
2023-02-12T06:25:08.626Z,45.44
2023-02-12T06:26:08.584Z,46.25
2023-02-12T06:27:08.579Z,44.79
2023-02-12T06:28:08.627Z,45.60
2023-02-12T06:29:08.539Z,47.37
2023-02-12T06:30:08.559Z,47.21
2023-02-12T06:31:08.880Z,45.92
2023-02-12T06:32:08.853Z,47.05
2023-02-12T06:33:08.718Z,44.96
2023-02-12T06:34:08.521Z,45.12
2023-02-12T06:35:08.529Z,45.44
2023-02-12T06:36:08.541Z,44.96
2023-02-12T06:37:08.537Z,45.60
2023-02-12T06:38:08.555Z,45.12
2023-02-12T06:39:08.522Z,44.96
2023-02-12T06:40:08.504Z,45.28
2023-02-12T06:41:08.495Z,45.44
2023-02-12T06:42:08.495Z,45.92
2023-02-12T06:43:08.496Z,45.12
2023-02-12T06:44:08.471Z,46.08
2023-02-12T06:45:08.480Z,46.73
2023-02-12T06:46:08.465Z,46.89
2023-02-12T06:47:08.512Z,45.76
2023-02-12T06:48:08.448Z,46.73
2023-02-12T06:49:08.462Z,45.76
2023-02-12T06:50:08.424Z,45.28
2023-02-12T06:51:08.443Z,45.60
2023-02-12T06:52:08.523Z,45.60
2023-02-12T06:53:08.545Z,46.25
2023-02-12T06:54:08.434Z,45.76
2023-02-12T06:55:08.439Z,45.92
2023-02-12T06:56:08.377Z,44.79
2023-02-12T06:57:08.406Z,45.92
2023-02-12T06:58:08.409Z,46.57
2023-02-12T06:59:08.417Z,45.76
2023-02-12T07:00:08.425Z,45.60
2023-02-12T07:01:08.691Z,46.57
2023-02-12T07:02:08.988Z,51.08
2023-02-12T07:03:08.418Z,52.53
2023-02-12T07:04:08.404Z,51.24
2023-02-12T07:05:08.347Z,46.73
2023-02-12T07:06:08.327Z,45.60
2023-02-12T07:07:08.599Z,45.92
2023-02-12T07:08:08.475Z,46.25
2023-02-12T07:09:08.432Z,45.44
2023-02-12T07:10:08.399Z,46.25
2023-02-12T07:11:08.312Z,46.25
2023-02-12T07:12:11.298Z,46.25
2023-02-12T07:13:08.512Z,45.76
2023-02-12T07:14:08.277Z,45.28
2023-02-12T07:15:08.349Z,46.08
2023-02-12T07:16:08.312Z,45.60
2023-02-12T07:17:08.296Z,47.70
2023-02-12T07:18:08.270Z,46.08
2023-02-12T07:19:08.254Z,44.96
2023-02-12T07:20:08.287Z,46.89
2023-02-12T07:21:08.282Z,47.70
2023-02-12T07:22:08.245Z,46.25
2023-02-12T07:23:08.289Z,46.08
2023-02-12T07:24:08.210Z,45.60
2023-02-12T07:25:08.221Z,45.60
2023-02-12T07:26:08.225Z,47.70
2023-02-12T07:27:08.213Z,46.41
2023-02-12T07:28:08.247Z,46.25
2023-02-12T07:29:08.214Z,45.92
2023-02-12T07:30:08.302Z,46.08
2023-02-12T07:31:08.321Z,45.76
2023-02-12T07:32:08.261Z,46.73
2023-02-12T07:33:08.177Z,47.70
2023-02-12T07:34:08.172Z,45.44
2023-02-12T07:35:08.194Z,45.92
2023-02-12T07:36:08.162Z,49.47
2023-02-12T07:37:08.166Z,47.86
2023-02-12T07:38:08.280Z,47.37
2023-02-12T07:39:08.158Z,46.41
2023-02-12T07:40:08.163Z,45.92
2023-02-12T07:41:10.551Z,45.92
2023-02-12T07:42:10.137Z,46.89
2023-02-12T07:43:08.106Z,45.92
2023-02-12T07:44:09.744Z,45.76
2023-02-12T07:45:08.898Z,46.08
2023-02-12T07:46:08.206Z,45.60
2023-02-12T07:47:09.113Z,47.70
2023-02-12T07:48:08.089Z,45.76
2023-02-12T07:49:08.134Z,45.28
2023-02-12T07:50:08.086Z,45.60
2023-02-12T07:51:08.103Z,46.57
2023-02-12T07:52:08.058Z,46.41
2023-02-12T07:53:08.085Z,45.92
2023-02-12T07:54:08.522Z,45.60
2023-02-12T07:55:08.116Z,45.76
2023-02-12T07:56:08.130Z,46.57
2023-02-12T07:57:08.037Z,48.66
2023-02-12T07:58:08.045Z,46.73
2023-02-12T07:59:08.035Z,46.41
2023-02-12T08:00:08.004Z,47.37
2023-02-12T08:01:08.018Z,46.08
2023-02-12T08:02:08.012Z,52.85
2023-02-12T08:03:08.020Z,52.85
2023-02-12T08:04:08.115Z,53.82
2023-02-12T08:05:07.990Z,53.33
2023-02-12T08:06:08.046Z,45.76
2023-02-12T08:07:07.980Z,45.60
2023-02-12T08:08:08.139Z,46.25
2023-02-12T08:09:07.990Z,45.76
2023-02-12T08:10:07.969Z,46.73
2023-02-12T08:11:07.960Z,49.31
2023-02-12T08:12:07.989Z,50.11
2023-02-12T08:13:08.054Z,46.25
2023-02-12T08:14:07.973Z,48.18
2023-02-12T08:15:07.948Z,46.73
2023-02-12T08:16:07.984Z,45.92
2023-02-12T08:17:07.939Z,46.57
2023-02-12T08:18:07.920Z,46.57
2023-02-12T08:19:18.720Z,48.34
2023-02-12T08:20:09.948Z,46.57
2023-02-12T08:21:07.902Z,54.46
2023-02-12T08:22:07.903Z,54.95
2023-02-12T08:23:07.900Z,56.07
2023-02-12T08:24:07.929Z,54.62
2023-02-12T08:25:07.924Z,54.79
2023-02-12T08:26:07.892Z,53.82
2023-02-12T08:27:07.896Z,55.43
2023-02-12T08:28:07.874Z,56.72
2023-02-12T08:29:07.842Z,55.11
2023-02-12T08:30:07.850Z,54.79
2023-02-12T08:31:07.949Z,46.89
2023-02-12T08:32:07.847Z,48.82
2023-02-12T08:33:07.836Z,45.60
2023-02-12T08:34:07.830Z,45.28
2023-02-12T08:35:07.859Z,47.37
2023-02-12T08:36:07.845Z,46.08
2023-02-12T08:37:07.850Z,46.57
2023-02-12T08:38:07.809Z,46.25
2023-02-12T08:39:07.814Z,46.41
2023-02-12T08:40:07.792Z,46.57
2023-02-12T08:41:07.857Z,46.57
2023-02-12T08:42:07.823Z,48.02
2023-02-12T08:43:07.792Z,45.76
2023-02-12T08:44:07.814Z,48.50
2023-02-12T08:45:07.773Z,47.21
2023-02-12T08:46:07.822Z,47.53
2023-02-12T08:47:07.803Z,48.34
2023-02-12T08:48:07.733Z,48.34
2023-02-12T08:49:07.783Z,48.50
2023-02-12T08:50:07.748Z,47.70
2023-02-12T08:51:07.745Z,47.53
2023-02-12T08:52:07.787Z,47.05
2023-02-12T08:53:07.719Z,45.92
2023-02-12T08:54:07.773Z,46.41
2023-02-12T08:55:07.722Z,47.53
2023-02-12T08:56:07.717Z,45.44
2023-02-12T08:57:07.715Z,46.41
2023-02-12T08:58:07.695Z,48.18
2023-02-12T08:59:07.755Z,47.21
2023-02-12T09:00:07.736Z,47.70
2023-02-12T09:01:07.725Z,48.02
2023-02-12T09:02:07.775Z,47.21
2023-02-12T09:03:07.793Z,46.89
2023-02-12T09:04:07.660Z,46.73
2023-02-12T09:05:07.668Z,52.85
2023-02-12T09:06:07.654Z,48.34
2023-02-12T09:07:10.642Z,48.02
2023-02-12T09:08:08.733Z,47.21
2023-02-12T09:09:07.637Z,46.73
2023-02-12T09:10:07.666Z,47.86
2023-02-12T09:11:07.728Z,47.70
2023-02-12T09:12:07.633Z,46.57
2023-02-12T09:13:07.697Z,47.37
2023-02-12T09:14:07.645Z,47.37
2023-02-12T09:15:07.646Z,46.25
2023-02-12T09:16:07.621Z,46.57
2023-02-12T09:17:07.645Z,46.57
2023-02-12T09:18:07.613Z,48.02
2023-02-12T09:19:07.592Z,45.44
2023-02-12T09:20:07.604Z,46.25
2023-02-12T09:21:07.621Z,46.73
2023-02-12T09:22:07.724Z,46.41
2023-02-12T09:23:07.703Z,46.73
2023-02-12T09:24:07.751Z,47.37
2023-02-12T09:25:07.596Z,48.02
2023-02-12T09:26:07.799Z,46.25
2023-02-12T09:27:07.560Z,47.21
2023-02-12T09:28:07.589Z,46.73
2023-02-12T09:29:07.570Z,45.76
2023-02-12T09:30:07.550Z,45.12
2023-02-12T09:31:07.640Z,49.63
2023-02-12T09:32:07.571Z,47.86
2023-02-12T09:33:07.537Z,48.18
2023-02-12T09:34:07.603Z,45.92
2023-02-12T09:35:07.510Z,46.57
2023-02-12T09:36:07.506Z,46.08
2023-02-12T09:37:07.516Z,46.25
2023-02-12T09:38:07.697Z,45.44
2023-02-12T09:39:07.540Z,47.86
2023-02-12T09:40:07.493Z,46.73
2023-02-12T09:41:07.504Z,49.79
2023-02-12T09:42:07.544Z,47.70
2023-02-12T09:43:07.524Z,47.86
2023-02-12T09:44:07.512Z,46.25
2023-02-12T09:45:07.467Z,46.73
2023-02-12T09:46:07.528Z,46.08
2023-02-12T09:47:07.490Z,47.21
2023-02-12T09:48:07.431Z,45.76
2023-02-12T09:49:07.447Z,46.25
2023-02-12T09:50:07.532Z,46.73
2023-02-12T09:51:07.434Z,48.34
2023-02-12T09:52:07.453Z,46.73
2023-02-12T09:53:07.470Z,48.82
2023-02-12T09:54:07.446Z,49.79
2023-02-12T09:55:07.450Z,47.05
2023-02-12T09:56:07.432Z,47.70
2023-02-12T09:57:07.436Z,47.05
2023-02-12T09:58:07.390Z,45.92
2023-02-12T09:59:07.398Z,47.53
2023-02-12T10:00:07.494Z,49.47
2023-02-12T10:01:07.409Z,50.27
2023-02-12T10:02:08.435Z,52.05
2023-02-12T10:03:07.375Z,53.82
2023-02-12T10:04:07.463Z,53.66
2023-02-12T10:05:07.512Z,47.05
2023-02-12T10:06:07.403Z,47.86
2023-02-12T10:07:07.379Z,46.25
2023-02-12T10:08:07.376Z,48.66
2023-02-12T10:09:07.378Z,48.66
2023-02-12T10:10:08.106Z,49.15
2023-02-12T10:11:08.391Z,46.25
2023-02-12T10:12:07.357Z,45.44
2023-02-12T10:13:07.436Z,49.15
2023-02-12T10:14:07.393Z,48.34
2023-02-12T10:15:07.407Z,48.98
2023-02-12T10:16:07.383Z,46.73
2023-02-12T10:17:07.375Z,47.21
2023-02-12T10:18:07.348Z,47.21
2023-02-12T10:19:07.358Z,46.25
2023-02-12T10:20:07.353Z,49.15
2023-02-12T10:21:07.346Z,46.73
2023-02-12T10:22:07.419Z,48.02
2023-02-12T10:23:07.354Z,45.92
2023-02-12T10:24:07.383Z,46.89
2023-02-12T10:25:07.291Z,46.89
2023-02-12T10:26:07.354Z,48.98
2023-02-12T10:27:07.322Z,47.86
2023-02-12T10:28:07.330Z,47.53
2023-02-12T10:29:07.294Z,47.70
2023-02-12T10:30:07.303Z,48.82
2023-02-12T10:31:07.368Z,48.98
2023-02-12T10:32:07.318Z,48.50
2023-02-12T10:33:07.294Z,47.53
2023-02-12T10:34:07.288Z,47.53
2023-02-12T10:35:07.288Z,48.18
2023-02-12T10:36:07.253Z,48.66
2023-02-12T10:37:07.282Z,49.47
2023-02-12T10:38:07.246Z,53.82
2023-02-12T10:39:07.252Z,49.79
2023-02-12T10:40:07.261Z,49.47
2023-02-12T10:41:07.238Z,48.50
2023-02-12T10:42:08.247Z,46.08
2023-02-12T10:43:09.726Z,47.70
2023-02-12T10:44:07.272Z,48.82
2023-02-12T10:45:07.187Z,47.70
2023-02-12T10:46:07.284Z,47.21
2023-02-12T10:47:07.184Z,47.05
2023-02-12T10:48:07.210Z,49.47
2023-02-12T10:49:07.172Z,49.95
2023-02-12T10:50:07.190Z,47.21
2023-02-12T10:51:07.158Z,50.92
2023-02-12T10:52:07.154Z,47.05
2023-02-12T10:53:07.194Z,49.95
2023-02-12T10:54:07.151Z,49.79
2023-02-12T10:55:07.134Z,48.02
2023-02-12T10:56:07.148Z,46.57
2023-02-12T10:57:07.155Z,46.57
2023-02-12T10:58:07.236Z,46.57
2023-02-12T10:59:07.198Z,48.50
2023-02-12T11:00:07.114Z,47.53
2023-02-12T11:01:07.116Z,47.21
2023-02-12T11:02:07.116Z,48.18
2023-02-12T11:03:07.145Z,47.86
2023-02-12T11:04:07.220Z,46.73
2023-02-12T11:05:07.150Z,48.50
2023-02-12T11:06:07.142Z,48.18
2023-02-12T11:07:07.120Z,49.15
2023-02-12T11:08:07.109Z,49.47
2023-02-12T11:09:07.066Z,48.66
2023-02-12T11:10:07.130Z,47.70
2023-02-12T11:11:07.101Z,48.50
2023-02-12T11:12:07.081Z,49.95
2023-02-12T11:13:07.061Z,48.50
2023-02-12T11:14:07.087Z,49.15
2023-02-12T11:15:07.079Z,48.18
2023-02-12T11:16:07.190Z,48.02
2023-02-12T11:17:07.026Z,48.98
2023-02-12T11:18:07.077Z,47.05
2023-02-12T11:19:07.058Z,46.57
2023-02-12T11:20:07.024Z,48.98
2023-02-12T11:21:07.485Z,47.86
2023-02-12T11:22:07.172Z,46.89
2023-02-12T11:23:07.004Z,47.05
2023-02-12T11:24:07.003Z,49.15
2023-02-12T11:25:07.035Z,49.15
2023-02-12T11:26:07.058Z,46.08
2023-02-12T11:27:07.017Z,46.08
2023-02-12T11:28:07.110Z,46.25
2023-02-12T11:29:07.187Z,47.21
2023-02-12T11:30:06.963Z,46.08
2023-02-12T11:31:07.061Z,47.53
2023-02-12T11:32:07.144Z,46.89
2023-02-12T11:33:07.028Z,45.28
2023-02-12T11:34:06.973Z,46.73
2023-02-12T11:35:06.986Z,47.05
2023-02-12T11:36:07.694Z,47.86
2023-02-12T11:37:08.019Z,48.34
2023-02-12T11:38:06.956Z,47.05
2023-02-12T11:39:06.945Z,46.25
2023-02-12T11:40:06.971Z,46.08
2023-02-12T11:41:07.913Z,45.92
2023-02-12T11:42:06.964Z,46.41
2023-02-12T11:43:06.987Z,48.98
2023-02-12T11:44:06.944Z,46.41
2023-02-12T11:45:06.989Z,46.25
2023-02-12T11:46:07.301Z,45.76
2023-02-12T11:47:06.994Z,46.41
2023-02-12T11:48:06.924Z,49.15
2023-02-12T11:49:06.953Z,45.92
2023-02-12T11:50:06.981Z,46.08
2023-02-12T11:51:06.908Z,45.76
2023-02-12T11:52:06.891Z,45.44
2023-02-12T11:53:06.888Z,45.92
2023-02-12T11:54:06.880Z,47.37
2023-02-12T11:55:07.178Z,44.96
2023-02-12T11:56:06.871Z,45.92
2023-02-12T11:57:06.883Z,46.08
2023-02-12T11:58:07.176Z,45.60
2023-02-12T11:59:06.855Z,46.41
2023-02-12T12:00:06.838Z,46.73
2023-02-12T12:01:06.930Z,45.76
2023-02-12T12:02:06.907Z,46.25
2023-02-12T12:03:06.829Z,45.76
2023-02-12T12:04:06.843Z,45.76
2023-02-12T12:05:06.800Z,45.60
2023-02-12T12:06:06.856Z,47.05
2023-02-12T12:07:06.811Z,46.73
2023-02-12T12:08:06.841Z,47.05
2023-02-12T12:09:06.814Z,47.21
2023-02-12T12:10:06.818Z,47.21
2023-02-12T12:11:06.800Z,46.41
2023-02-12T12:12:06.786Z,46.89
2023-02-12T12:13:06.789Z,46.89
2023-02-12T12:14:06.927Z,47.05
2023-02-12T12:15:06.934Z,47.37
2023-02-12T12:16:07.283Z,46.73
2023-02-12T12:17:06.786Z,46.73
2023-02-12T12:18:06.760Z,46.08
2023-02-12T12:19:06.775Z,47.86
2023-02-12T12:20:06.786Z,46.25
2023-02-12T12:21:06.742Z,45.28
2023-02-12T12:22:06.719Z,46.25
2023-02-12T12:23:06.711Z,46.25
2023-02-12T12:24:06.734Z,46.57
2023-02-12T12:25:06.764Z,46.08
2023-02-12T12:26:06.833Z,45.28
2023-02-12T12:27:06.720Z,45.28
2023-02-12T12:28:06.726Z,46.25
2023-02-12T12:29:06.781Z,45.92
2023-02-12T12:30:06.712Z,46.41
2023-02-12T12:31:06.757Z,46.41
2023-02-12T12:32:06.797Z,47.21
2023-02-12T12:33:06.783Z,46.25
2023-02-12T12:34:06.687Z,47.05
2023-02-12T12:35:06.745Z,46.41
2023-02-12T12:36:06.738Z,46.57
2023-02-12T12:37:06.694Z,46.57
2023-02-12T12:38:06.677Z,45.60
2023-02-12T12:39:06.664Z,47.37
2023-02-12T12:40:06.672Z,45.28
2023-02-12T12:41:06.690Z,45.44
2023-02-12T12:42:06.633Z,45.28
2023-02-12T12:43:06.673Z,46.57
2023-02-12T12:44:06.664Z,46.57
2023-02-12T12:45:06.653Z,45.76
2023-02-12T12:46:06.716Z,46.41
2023-02-12T12:47:06.664Z,47.05
2023-02-12T12:48:06.625Z,48.34
2023-02-12T12:49:06.594Z,47.21
2023-02-12T12:50:06.624Z,46.25
2023-02-12T12:51:06.594Z,47.86
2023-02-12T12:52:06.589Z,46.73